Terminal Aerodrome Forecast
Issued by NWS Louisville, KY

Home | Current Version | Previous Version | Text Only | Print | Product List | Glossary On
Versions: 1 2 3 4 5 6 7 8 9 10 11 12 13 14 15 16 17 18
000
FTUS43 KLMK 221725
TAFSDF
TAF
KSDF 221725Z 2218/2324 25010G18KT P6SM VCTS SCT040CB BKN250
     FM222000 25010G17KT P6SM SCT040 BKN250
     FM230600 24007KT P6SM SCT060 SCT200 PROB30 2309/2313 -TSRA
      BKN040CB
     FM231600 27006KT P6SM SCT050 BKN150=

USA.gov is the U.S. government's official web portal to all federal, state and local government web resources and services.